sensor_id;sensor_type;location;lat;lon;timestamp;pressure;altitude;pressure_sealevel;temperature
73685;BMP280;61985;51.070;14.064;2023-04-12T00:01:36;98351.22;;;1.13
73685;BMP280;61985;51.070;14.064;2023-04-12T00:04:01;98347.47;;;1.14
73685;BMP280;61985;51.070;14.064;2023-04-12T00:06:28;98339.72;;;1.01
73685;BMP280;61985;51.070;14.064;2023-04-12T00:08:57;98337.06;;;1.01
73685;BMP280;61985;51.070;14.064;2023-04-12T00:11:23;98332.59;;;1.05
73685;BMP280;61985;51.070;14.064;2023-04-12T00:13:48;98326.06;;;0.99
73685;BMP280;61985;51.070;14.064;2023-04-12T00:16:13;98319.72;;;1.07
73685;BMP280;61985;51.070;14.064;2023-04-12T00:18:40;98318.50;;;1.01
73685;BMP280;61985;51.070;14.064;2023-04-12T00:21:07;98315.09;;;1.01
73685;BMP280;61985;51.070;14.064;2023-04-12T00:23:34;98318.91;;;1.03
73685;BMP280;61985;51.070;14.064;2023-04-12T00:26:02;98312.09;;;1.02
73685;BMP280;61985;51.070;14.064;2023-04-12T00:28:27;98308.09;;;0.85
73685;BMP280;61985;51.070;14.064;2023-04-12T00:30:53;98303.19;;;0.87
73685;BMP280;61985;51.070;14.064;2023-04-12T00:33:18;98298.97;;;0.83
73685;BMP280;61985;51.070;14.064;2023-04-12T00:35:43;98305.38;;;0.82
73685;BMP280;61985;51.070;14.064;2023-04-12T00:38:09;98296.31;;;0.83
73685;BMP280;61985;51.070;14.064;2023-04-12T00:40:35;98295.13;;;0.80
73685;BMP280;61985;51.070;14.064;2023-04-12T00:43:01;98304.25;;;0.83
73685;BMP280;61985;51.070;14.064;2023-04-12T00:45:27;98300.06;;;0.82
73685;BMP280;61985;51.070;14.064;2023-04-12T00:47:53;98292.53;;;0.84
73685;BMP280;61985;51.070;14.064;2023-04-12T00:50:19;98292.13;;;0.82
73685;BMP280;61985;51.070;14.064;2023-04-12T00:52:45;98292.53;;;0.84
73685;BMP280;61985;51.070;14.064;2023-04-12T00:55:10;98299.31;;;0.81
73685;BMP280;61985;51.070;14.064;2023-04-12T00:57:37;98302.72;;;0.82
73685;BMP280;61985;51.070;14.064;2023-04-12T01:00:08;98303.16;;;0.84
73685;BMP280;61985;51.070;14.064;2023-04-12T01:02:39;98296.31;;;0.83
73685;BMP280;61985;51.070;14.064;2023-04-12T01:05:08;98295.22;;;0.87
73685;BMP280;61985;51.070;14.064;2023-04-12T01:07:48;98285.22;;;0.74
73685;BMP280;61985;51.070;14.064;2023-04-12T01:15:50;98286.84;;;0.51
73685;BMP280;61985;51.070;14.064;2023-04-12T01:18:20;98285.03;;;0.59
73685;BMP280;61985;51.070;14.064;2023-04-12T01:20:54;98288.81;;;0.58
73685;BMP280;61985;51.070;14.064;2023-04-12T01:26:46;98282.28;;;0.52
73685;BMP280;61985;51.070;14.064;2023-04-12T01:29:17;98267.50;;;0.51
73685;BMP280;61985;51.070;14.064;2023-04-12T01:31:51;98268.13;;;0.71
73685;BMP280;61985;51.070;14.064;2023-04-12T01:34:18;98267.06;;;0.45
73685;BMP280;61985;51.070;14.064;2023-04-12T01:36:46;98255.28;;;0.43
73685;BMP280;61985;51.070;14.064;2023-04-12T01:39:12;98245.56;;;0.54
73685;BMP280;61985;51.070;14.064;2023-04-12T01:41:39;98247.72;;;0.45
73685;BMP280;61985;51.070;14.064;2023-04-12T01:44:05;98241.31;;;0.46
73685;BMP280;61985;51.070;14.064;2023-04-12T01:46:31;98236.72;;;0.43
73685;BMP280;61985;51.070;14.064;2023-04-12T01:48:58;98237.47;;;0.43
73685;BMP280;61985;51.070;14.064;2023-04-12T01:53:59;98242.03;;;0.43
73685;BMP280;61985;51.070;14.064;2023-04-12T01:56:29;98234.41;;;0.38
73685;BMP280;61985;51.070;14.064;2023-04-12T01:58:59;98235.91;;;0.39
73685;BMP280;61985;51.070;14.064;2023-04-12T02:01:26;98228.50;;;0.51
73685;BMP280;61985;51.070;14.064;2023-04-12T02:03:54;98225.50;;;0.53
73685;BMP280;61985;51.070;14.064;2023-04-12T02:06:21;98220.84;;;0.46
73685;BMP280;61985;51.070;14.064;2023-04-12T02:08:47;98208.69;;;0.42
73685;BMP280;61985;51.070;14.064;2023-04-12T02:11:13;98202.63;;;0.41
73685;BMP280;61985;51.070;14.064;2023-04-12T02:13:40;98204.66;;;0.51
73685;BMP280;61985;51.070;14.064;2023-04-12T02:16:06;98212.50;;;0.44
73685;BMP280;61985;51.070;14.064;2023-04-12T02:18:32;98205.63;;;0.40
73685;BMP280;61985;51.070;14.064;2023-04-12T02:20:59;98196.56;;;0.41
73685;BMP280;61985;51.070;14.064;2023-04-12T02:23:24;98191.94;;;0.34
73685;BMP280;61985;51.070;14.064;2023-04-12T02:25:50;98179.75;;;0.26
73685;BMP280;61985;51.070;14.064;2023-04-12T02:28:15;98174.06;;;0.24
73685;BMP280;61985;51.070;14.064;2023-04-12T02:30:40;98171.44;;;0.27
73685;BMP280;61985;51.070;14.064;2023-04-12T02:33:06;98170.59;;;0.20
73685;BMP280;61985;51.070;14.064;2023-04-12T02:35:34;98177.47;;;0.24
73685;BMP280;61985;51.070;14.064;2023-04-12T02:38:00;98173.69;;;0.25
73685;BMP280;61985;51.070;14.064;2023-04-12T02:40:27;98172.84;;;0.17
73685;BMP280;61985;51.070;14.064;2023-04-12T02:42:53;98173.50;;;0.11
73685;BMP280;61985;51.070;14.064;2023-04-12T02:45:18;98169.59;;;0.01
73685;BMP280;61985;51.070;14.064;2023-04-12T02:47:43;98161.22;;;-0.05
73685;BMP280;61985;51.070;14.064;2023-04-12T02:50:09;98159.94;;;-0.14
73685;BMP280;61985;51.070;14.064;2023-04-12T02:52:34;98164.94;;;-0.09
73685;BMP280;61985;51.070;14.064;2023-04-12T02:54:59;98161.69;;;0.05
73685;BMP280;61985;51.070;14.064;2023-04-12T02:57:25;98161.38;;;-0.21
73685;BMP280;61985;51.070;14.064;2023-04-12T02:59:50;98157.81;;;-0.32
73685;BMP280;61985;51.070;14.064;2023-04-12T03:02:19;98168.03;;;-0.30
73685;BMP280;61985;51.070;14.064;2023-04-12T03:04:45;98167.72;;;-0.25
73685;BMP280;61985;51.070;14.064;2023-04-12T03:07:12;98163.25;;;-0.21
73685;BMP280;61985;51.070;14.064;2023-04-12T03:09:37;98164.16;;;-0.37
73685;BMP280;61985;51.070;14.064;2023-04-12T03:12:03;98161.44;;;-0.40
73685;BMP280;61985;51.070;14.064;2023-04-12T03:14:28;98163.38;;;-0.37
73685;BMP280;61985;51.070;14.064;2023-04-12T03:16:53;98163.44;;;-0.33
73685;BMP280;61985;51.070;14.064;2023-04-12T03:19:19;98168.31;;;-0.36
73685;BMP280;61985;51.070;14.064;2023-04-12T03:21:44;98155.28;;;-0.25
73685;BMP280;61985;51.070;14.064;2023-04-12T03:24:10;98149.91;;;-0.28
73685;BMP280;61985;51.070;14.064;2023-04-12T03:26:35;98149.63;;;-0.23
73685;BMP280;61985;51.070;14.064;2023-04-12T03:29:02;98154.09;;;-0.27
73685;BMP280;61985;51.070;14.064;2023-04-12T05:21:23;98093.03;;;1.71
73685;BMP280;61985;51.070;14.064;2023-04-12T05:23:49;98088.53;;;1.83
73685;BMP280;61985;51.070;14.064;2023-04-12T05:26:14;98091.63;;;1.99
73685;BMP280;61985;51.070;14.064;2023-04-12T05:28:40;98098.88;;;2.13
73685;BMP280;61985;51.070;14.064;2023-04-12T05:31:05;98087.91;;;2.22
73685;BMP280;61985;51.070;14.064;2023-04-12T05:33:31;98089.03;;;2.35
73685;BMP280;61985;51.070;14.064;2023-04-12T05:35:58;98081.88;;;2.50
73685;BMP280;61985;51.070;14.064;2023-04-12T05:38:24;98077.31;;;2.65
73685;BMP280;61985;51.070;14.064;2023-04-12T05:40:49;98080.72;;;2.72
73685;BMP280;61985;51.070;14.064;2023-04-12T05:43:14;98065.91;;;2.79
73685;BMP280;61985;51.070;14.064;2023-04-12T05:45:40;98063.25;;;2.89
73685;BMP280;61985;51.070;14.064;2023-04-12T05:48:06;98061.72;;;3.03
73685;BMP280;61985;51.070;14.064;2023-04-12T05:50:31;98058.66;;;3.12
73685;BMP280;61985;51.070;14.064;2023-04-12T05:52:56;98057.50;;;3.23
73685;BMP280;61985;51.070;14.064;2023-04-12T05:55:22;98046.78;;;3.52
73685;BMP280;61985;51.070;14.064;2023-04-12T05:57:47;98050.13;;;3.63
73685;BMP280;61985;51.070;14.064;2023-04-12T06:00:13;98040.56;;;3.77
73685;BMP280;61985;51.070;14.064;2023-04-12T06:02:42;98040.88;;;3.86
73685;BMP280;61985;51.070;14.064;2023-04-12T06:05:08;98032.88;;;3.93
73685;BMP280;61985;51.070;14.064;2023-04-12T06:07:39;98039.63;;;4.05
73685;BMP280;61985;51.070;14.064;2023-04-12T06:10:07;98029.66;;;4.16
73685;BMP280;61985;51.070;14.064;2023-04-12T06:21:08;98003.63;;;4.76
73685;BMP280;61985;51.070;14.064;2023-04-12T06:24:19;98003.06;;;4.96
73685;BMP280;61985;51.070;14.064;2023-04-12T06:27:20;97988.66;;;5.21
73685;BMP280;61985;51.070;14.064;2023-04-12T06:33:33;97991.81;;;5.43
73685;BMP280;61985;51.070;14.064;2023-04-12T06:36:32;97982.84;;;5.57
73685;BMP280;61985;51.070;14.064;2023-04-12T06:38:57;97977.28;;;5.71
73685;BMP280;61985;51.070;14.064;2023-04-12T06:41:22;97977.56;;;5.80
73685;BMP280;61985;51.070;14.064;2023-04-12T06:43:48;97960.94;;;5.93
73685;BMP280;61985;51.070;14.064;2023-04-12T06:46:14;97965.84;;;5.98
73685;BMP280;61985;51.070;14.064;2023-04-12T06:48:42;97956.41;;;6.13
73685;BMP280;61985;51.070;14.064;2023-04-12T06:51:09;97955.06;;;6.25
73685;BMP280;61985;51.070;14.064;2023-04-12T06:53:35;97956.31;;;6.40
73685;BMP280;61985;51.070;14.064;2023-04-12T06:56:04;97949.00;;;6.44
73685;BMP280;61985;51.070;14.064;2023-04-12T06:58:29;97931.53;;;6.60
73685;BMP280;61985;51.070;14.064;2023-04-12T07:01:06;97934.03;;;6.67
73685;BMP280;61985;51.070;14.064;2023-04-12T07:03:31;97938.53;;;6.74
73685;BMP280;61985;51.070;14.064;2023-04-12T07:05:58;97928.50;;;6.78
73685;BMP280;61985;51.070;14.064;2023-04-12T07:08:31;97931.34;;;6.87
73685;BMP280;61985;51.070;14.064;2023-04-12T07:10:57;97935.50;;;6.92
73685;BMP280;61985;51.070;14.064;2023-04-12T07:13:28;97942.16;;;7.04
73685;BMP280;61985;51.070;14.064;2023-04-12T07:15:55;97938.63;;;7.07
73685;BMP280;61985;51.070;14.064;2023-04-12T07:18:20;97935.44;;;7.12
73685;BMP280;61985;51.070;14.064;2023-04-12T07:20:57;97929.84;;;7.22
73685;BMP280;61985;51.070;14.064;2023-04-12T07:23:40;97939.50;;;7.36
73685;BMP280;61985;51.070;14.064;2023-04-12T07:26:26;97937.84;;;7.43
73685;BMP280;61985;51.070;14.064;2023-04-12T07:28:51;97940.72;;;7.52
73685;BMP280;61985;51.070;14.064;2023-04-12T07:31:20;97932.19;;;7.57
73685;BMP280;61985;51.070;14.064;2023-04-12T08:43:11;97840.88;;;9.25
73685;BMP280;61985;51.070;14.064;2023-04-12T08:45:36;97840.47;;;9.40
73685;BMP280;61985;51.070;14.064;2023-04-12T08:48:12;97833.84;;;9.54
73685;BMP280;61985;51.070;14.064;2023-04-12T08:50:50;97826.88;;;9.43
73685;BMP280;61985;51.070;14.064;2023-04-12T08:58:29;97820.56;;;9.37
73685;BMP280;61985;51.070;14.064;2023-04-12T10:15:17;97688.78;;;11.27
73685;BMP280;61985;51.070;14.064;2023-04-12T10:17:59;97686.69;;;11.22
73685;BMP280;61985;51.070;14.064;2023-04-12T10:20:25;97691.31;;;11.31
73685;BMP280;61985;51.070;14.064;2023-04-12T10:22:51;97674.13;;;11.19
73685;BMP280;61985;51.070;14.064;2023-04-12T10:25:19;97666.34;;;11.12
73685;BMP280;61985;51.070;14.064;2023-04-12T10:27:46;97672.13;;;11.38
73685;BMP280;61985;51.070;14.064;2023-04-12T10:30:26;97660.41;;;11.59
73685;BMP280;61985;51.070;14.064;2023-04-12T10:33:12;97663.28;;;11.89
73685;BMP280;61985;51.070;14.064;2023-04-12T10:58:54;97606.44;;;12.17
73685;BMP280;61985;51.070;14.064;2023-04-12T11:01:19;97610.59;;;12.42
73685;BMP280;61985;51.070;14.064;2023-04-12T11:04:09;97606.19;;;12.54
73685;BMP280;61985;51.070;14.064;2023-04-12T11:06:53;97605.69;;;12.40
73685;BMP280;61985;51.070;14.064;2023-04-12T11:09:36;97607.47;;;12.82
73685;BMP280;61985;51.070;14.064;2023-04-12T11:14:50;97582.84;;;12.80
73685;BMP280;61985;51.070;14.064;2023-04-12T11:19:44;97585.09;;;13.12
73685;BMP280;61985;51.070;14.064;2023-04-12T11:22:16;97571.91;;;13.19
73685;BMP280;61985;51.070;14.064;2023-04-12T11:24:43;97575.09;;;13.68
73685;BMP280;61985;51.070;14.064;2023-04-12T11:27:09;97568.44;;;13.34
73685;BMP280;61985;51.070;14.064;2023-04-12T11:29:51;97575.03;;;13.83
73685;BMP280;61985;51.070;14.064;2023-04-12T11:32:19;97577.75;;;14.03
73685;BMP280;61985;51.070;14.064;2023-04-12T11:34:45;97572.03;;;14.22
73685;BMP280;61985;51.070;14.064;2023-04-12T11:37:14;97572.25;;;14.39
73685;BMP280;61985;51.070;14.064;2023-04-12T11:39:42;97574.00;;;14.21
73685;BMP280;61985;51.070;14.064;2023-04-12T11:42:19;97555.47;;;14.40
73685;BMP280;61985;51.070;14.064;2023-04-12T11:44:46;97567.38;;;14.22
73685;BMP280;61985;51.070;14.064;2023-04-12T11:47:16;97555.06;;;14.21
73685;BMP280;61985;51.070;14.064;2023-04-12T11:49:48;97555.66;;;14.31
73685;BMP280;61985;51.070;14.064;2023-04-12T11:52:15;97539.97;;;14.67
73685;BMP280;61985;51.070;14.064;2023-04-12T12:07:50;97518.56;;;15.06
73685;BMP280;61985;51.070;14.064;2023-04-12T12:10:17;97514.91;;;14.46
73685;BMP280;61985;51.070;14.064;2023-04-12T12:12:42;97505.44;;;13.89
73685;BMP280;61985;51.070;14.064;2023-04-12T12:15:15;97509.97;;;13.57
73685;BMP280;61985;51.070;14.064;2023-04-12T12:17:43;97510.94;;;13.54
73685;BMP280;61985;51.070;14.064;2023-04-12T12:20:18;97512.34;;;13.90
73685;BMP280;61985;51.070;14.064;2023-04-12T12:22:46;97498.44;;;14.23
73685;BMP280;61985;51.070;14.064;2023-04-12T12:25:12;97488.16;;;14.07
73685;BMP280;61985;51.070;14.064;2023-04-12T12:27:37;97489.03;;;14.19
73685;BMP280;61985;51.070;14.064;2023-04-12T12:30:05;97478.22;;;14.51
73685;BMP280;61985;51.070;14.064;2023-04-12T12:32:36;97468.97;;;14.63
73685;BMP280;61985;51.070;14.064;2023-04-12T12:35:06;97462.81;;;14.36
73685;BMP280;61985;51.070;14.064;2023-04-12T12:40:09;97451.97;;;14.10
73685;BMP280;61985;51.070;14.064;2023-04-12T12:42:45;97448.06;;;14.11
73685;BMP280;61985;51.070;14.064;2023-04-12T12:45:12;97451.56;;;14.17
73685;BMP280;61985;51.070;14.064;2023-04-12T12:47:57;97444.31;;;14.61
73685;BMP280;61985;51.070;14.064;2023-04-12T12:50:27;97433.97;;;15.02
73685;BMP280;61985;51.070;14.064;2023-04-12T12:52:54;97423.16;;;15.08
73685;BMP280;61985;51.070;14.064;2023-04-12T12:55:20;97423.69;;;15.18
73685;BMP280;61985;51.070;14.064;2023-04-12T12:57:47;97411.03;;;14.98
73685;BMP280;61985;51.070;14.064;2023-04-12T13:00:15;97423.53;;;14.90
73685;BMP280;61985;51.070;14.064;2023-04-12T13:02:44;97426.03;;;14.56
73685;BMP280;61985;51.070;14.064;2023-04-12T13:07:46;97406.41;;;14.72
73685;BMP280;61985;51.070;14.064;2023-04-12T13:10:11;97409.81;;;14.99
73685;BMP280;61985;51.070;14.064;2023-04-12T13:12:37;97403.53;;;15.36
73685;BMP280;61985;51.070;14.064;2023-04-12T13:15:03;97395.78;;;16.05
73685;BMP280;61985;51.070;14.064;2023-04-12T13:17:30;97387.06;;;15.51
73685;BMP280;61985;51.070;14.064;2023-04-12T13:19:55;97389.03;;;15.61
73685;BMP280;61985;51.070;14.064;2023-04-12T13:22:23;97375.03;;;15.03
73685;BMP280;61985;51.070;14.064;2023-04-12T13:24:49;97368.13;;;15.02
73685;BMP280;61985;51.070;14.064;2023-04-12T13:27:15;97384.03;;;14.77
73685;BMP280;61985;51.070;14.064;2023-04-12T13:29:41;97375.31;;;15.05
73685;BMP280;61985;51.070;14.064;2023-04-12T13:32:07;97370.97;;;15.36
73685;BMP280;61985;51.070;14.064;2023-04-12T13:34:32;97357.16;;;15.34
73685;BMP280;61985;51.070;14.064;2023-04-12T13:36:58;97361.19;;;15.83
73685;BMP280;61985;51.070;14.064;2023-04-12T13:39:23;97354.53;;;15.84
73685;BMP280;61985;51.070;14.064;2023-04-12T13:41:49;97356.66;;;15.41
73685;BMP280;61985;51.070;14.064;2023-04-12T13:44:14;97355.09;;;15.12
73685;BMP280;61985;51.070;14.064;2023-04-12T13:46:43;97347.97;;;15.14
73685;BMP280;61985;51.070;14.064;2023-04-12T13:49:19;97350.97;;;15.27
73685;BMP280;61985;51.070;14.064;2023-04-12T13:51:44;97342.31;;;15.29
73685;BMP280;61985;51.070;14.064;2023-04-12T13:54:10;97343.81;;;15.30
73685;BMP280;61985;51.070;14.064;2023-04-12T13:56:35;97343.03;;;15.18
73685;BMP280;61985;51.070;14.064;2023-04-12T13:59:34;97337.06;;;14.97
73685;BMP280;61985;51.070;14.064;2023-04-12T14:02:00;97341.47;;;14.95
73685;BMP280;61985;51.070;14.064;2023-04-12T14:04:30;97339.66;;;15.52
73685;BMP280;61985;51.070;14.064;2023-04-12T14:07:21;97346.63;;;15.69
73685;BMP280;61985;51.070;14.064;2023-04-12T14:09:53;97340.88;;;15.28
73685;BMP280;61985;51.070;14.064;2023-04-12T14:12:19;97339.72;;;14.92
73685;BMP280;61985;51.070;14.064;2023-04-12T14:14:45;97330.25;;;14.70
73685;BMP280;61985;51.070;14.064;2023-04-12T14:17:10;97334.84;;;14.53
73685;BMP280;61985;51.070;14.064;2023-04-12T14:19:36;97329.38;;;14.41
73685;BMP280;61985;51.070;14.064;2023-04-12T14:22:01;97329.78;;;14.34
73685;BMP280;61985;51.070;14.064;2023-04-12T14:24:26;97339.50;;;14.15
73685;BMP280;61985;51.070;14.064;2023-04-12T14:26:53;97331.19;;;14.24
73685;BMP280;61985;51.070;14.064;2023-04-12T14:29:19;97337.56;;;14.21
73685;BMP280;61985;51.070;14.064;2023-04-12T14:31:46;97336.78;;;14.46
73685;BMP280;61985;51.070;14.064;2023-04-12T14:34:12;97331.47;;;14.69
73685;BMP280;61985;51.070;14.064;2023-04-12T14:36:37;97328.84;;;14.80
73685;BMP280;61985;51.070;14.064;2023-04-12T14:39:03;97330.50;;;14.72
73685;BMP280;61985;51.070;14.064;2023-04-12T14:41:29;97341.00;;;14.53
73685;BMP280;61985;51.070;14.064;2023-04-12T14:43:59;97332.28;;;14.32
73685;BMP280;61985;51.070;14.064;2023-04-12T14:46:25;97343.69;;;14.16
73685;BMP280;61985;51.070;14.064;2023-04-12T14:48:52;97340.25;;;14.15
73685;BMP280;61985;51.070;14.064;2023-04-12T14:51:29;97336.72;;;14.03
73685;BMP280;61985;51.070;14.064;2023-04-12T14:53:58;97336.88;;;13.94
73685;BMP280;61985;51.070;14.064;2023-04-12T14:56:28;97330.28;;;13.95
73685;BMP280;61985;51.070;14.064;2023-04-12T14:58:54;97333.78;;;13.75
73685;BMP280;61985;51.070;14.064;2023-04-12T15:01:21;97339.97;;;13.55
73685;BMP280;61985;51.070;14.064;2023-04-12T15:03:47;97333.91;;;13.40
73685;BMP280;61985;51.070;14.064;2023-04-12T15:06:13;97341.16;;;13.28
73685;BMP280;61985;51.070;14.064;2023-04-12T15:08:45;97333.50;;;13.06
73685;BMP280;61985;51.070;14.064;2023-04-12T15:11:11;97324.81;;;12.96
73685;BMP280;61985;51.070;14.064;2023-04-12T15:13:37;97336.59;;;12.78
73685;BMP280;61985;51.070;14.064;2023-04-12T15:16:09;97336.63;;;12.63
73685;BMP280;61985;51.070;14.064;2023-04-12T15:18:38;97343.66;;;12.55
73685;BMP280;61985;51.070;14.064;2023-04-12T15:21:09;97342.19;;;12.39
73685;BMP280;61985;51.070;14.064;2023-04-12T15:23:40;97350.66;;;12.32
73685;BMP280;61985;51.070;14.064;2023-04-12T15:26:06;97349.56;;;12.09
73685;BMP280;61985;51.070;14.064;2023-04-12T15:28:36;97350.66;;;11.87
73685;BMP280;61985;51.070;14.064;2023-04-12T15:31:02;97351.41;;;11.88
73685;BMP280;61985;51.070;14.064;2023-04-12T16:38:34;97312.09;;;10.27
73685;BMP280;61985;51.070;14.064;2023-04-12T16:41:00;97319.41;;;10.27
73685;BMP280;61985;51.070;14.064;2023-04-12T16:43:26;97299.84;;;10.26
73685;BMP280;61985;51.070;14.064;2023-04-12T16:45:51;97289.22;;;10.23
73685;BMP280;61985;51.070;14.064;2023-04-12T16:48:17;97291.34;;;10.19
73685;BMP280;61985;51.070;14.064;2023-04-12T16:50:49;97285.19;;;10.27
73685;BMP280;61985;51.070;14.064;2023-04-12T16:53:14;97270.25;;;10.17
73685;BMP280;61985;51.070;14.064;2023-04-12T16:55:41;97271.31;;;10.10
73685;BMP280;61985;51.070;14.064;2023-04-12T16:58:08;97269.34;;;10.20
73685;BMP280;61985;51.070;14.064;2023-04-12T17:00:33;97267.44;;;10.12
73685;BMP280;61985;51.070;14.064;2023-04-12T17:03:00;97251.28;;;10.12
73685;BMP280;61985;51.070;14.064;2023-04-12T17:05:25;97257.09;;;10.10
73685;BMP280;61985;51.070;14.064;2023-04-12T17:07:52;97252.34;;;10.05
73685;BMP280;61985;51.070;14.064;2023-04-12T17:10:22;97254.56;;;10.06
73685;BMP280;61985;51.070;14.064;2023-04-12T17:12:50;97248.59;;;10.02
73685;BMP280;61985;51.070;14.064;2023-04-12T17:15:17;97242.50;;;10.02
73685;BMP280;61985;51.070;14.064;2023-04-12T17:17:46;97245.19;;;10.02
73685;BMP280;61985;51.070;14.064;2023-04-12T17:20:14;97239.50;;;10.00
73685;BMP280;61985;51.070;14.064;2023-04-12T17:22:40;97227.97;;;9.99
73685;BMP280;61985;51.070;14.064;2023-04-12T17:25:06;97241.16;;;9.97
73685;BMP280;61985;51.070;14.064;2023-04-12T17:27:33;97244.13;;;9.99
73685;BMP280;61985;51.070;14.064;2023-04-12T17:30:03;97239.66;;;9.96
73685;BMP280;61985;51.070;14.064;2023-04-12T17:32:29;97245.06;;;9.96
73685;BMP280;61985;51.070;14.064;2023-04-12T17:34:55;97246.72;;;9.94
73685;BMP280;61985;51.070;14.064;2023-04-12T17:37:21;97241.84;;;10.07
73685;BMP280;61985;51.070;14.064;2023-04-12T17:39:48;97248.59;;;10.02
73685;BMP280;61985;51.070;14.064;2023-04-12T17:42:14;97241.88;;;9.98
73685;BMP280;61985;51.070;14.064;2023-04-12T17:44:39;97239.66;;;9.96
73685;BMP280;61985;51.070;14.064;2023-04-12T17:47:05;97244.44;;;10.01
73685;BMP280;61985;51.070;14.064;2023-04-12T17:49:30;97256.25;;;9.95
73685;BMP280;61985;51.070;14.064;2023-04-12T17:51:55;97245.06;;;9.96
73685;BMP280;61985;51.070;14.064;2023-04-12T17:54:22;97250.44;;;9.96
73685;BMP280;61985;51.070;14.064;2023-04-12T17:56:48;97254.47;;;9.91
73685;BMP280;61985;51.070;14.064;2023-04-12T17:59:14;97249.97;;;9.88
73685;BMP280;61985;51.070;14.064;2023-04-12T18:01:39;97253.72;;;9.91
73685;BMP280;61985;51.070;14.064;2023-04-12T18:04:05;97242.81;;;9.85
73685;BMP280;61985;51.070;14.064;2023-04-12T18:06:31;97246.09;;;9.89
73685;BMP280;61985;51.070;14.064;2023-04-12T18:08:57;97250.16;;;9.85
73685;BMP280;61985;51.070;14.064;2023-04-12T18:11:22;97254.94;;;9.81
73685;BMP280;61985;51.070;14.064;2023-04-12T18:13:48;97251.06;;;9.82
73685;BMP280;61985;51.070;14.064;2023-04-12T18:16:13;97258.06;;;9.79
73685;BMP280;61985;51.070;14.064;2023-04-12T18:18:38;97261.22;;;9.78
73685;BMP280;61985;51.070;14.064;2023-04-12T18:21:04;97243.88;;;9.79
73685;BMP280;61985;51.070;14.064;2023-04-12T18:23:30;97249.88;;;9.83
73685;BMP280;61985;51.070;14.064;2023-04-12T18:25:56;97246.88;;;9.71
73685;BMP280;61985;51.070;14.064;2023-04-12T18:28:21;97255.25;;;9.74
73685;BMP280;61985;51.070;14.064;2023-04-12T18:30:47;97249.28;;;9.69
73685;BMP280;61985;51.070;14.064;2023-04-12T18:33:15;97240.63;;;9.65
73685;BMP280;61985;51.070;14.064;2023-04-12T18:35:41;97247.31;;;9.70
73685;BMP280;61985;51.070;14.064;2023-04-12T18:38:08;97248.84;;;9.62
73685;BMP280;61985;51.070;14.064;2023-04-12T18:40:37;97251.38;;;9.56
73685;BMP280;61985;51.070;14.064;2023-04-12T18:43:03;97248.56;;;9.60
73685;BMP280;61985;51.070;14.064;2023-04-12T18:45:28;97248.09;;;9.52
73685;BMP280;61985;51.070;14.064;2023-04-12T18:47:54;97253.31;;;9.56
73685;BMP280;61985;51.070;14.064;2023-04-12T18:50:23;97257.09;;;9.49
73685;BMP280;61985;51.070;14.064;2023-04-12T18:52:59;97251.72;;;9.49
73685;BMP280;61985;51.070;14.064;2023-04-12T18:55:25;97247.66;;;9.44
73685;BMP280;61985;51.070;14.064;2023-04-12T18:57:50;97251.09;;;9.45
73685;BMP280;61985;51.070;14.064;2023-04-12T19:00:34;97245.72;;;9.45
73685;BMP280;61985;51.070;14.064;2023-04-12T19:03:00;97244.53;;;9.46
73685;BMP280;61985;51.070;14.064;2023-04-12T19:05:25;97242.72;;;9.52
73685;BMP280;61985;51.070;14.064;2023-04-12T19:07:52;97239.28;;;9.51
73685;BMP280;61985;51.070;14.064;2023-04-12T19:10:18;97233.00;;;9.55
73685;BMP280;61985;51.070;14.064;2023-04-12T19:12:54;97232.88;;;9.58
73685;BMP280;61985;51.070;14.064;2023-04-12T19:15:20;97238.06;;;9.62
73685;BMP280;61985;51.070;14.064;2023-04-12T19:17:49;97246.88;;;9.62
73685;BMP280;61985;51.070;14.064;2023-04-12T19:20:14;97247.19;;;9.64
73685;BMP280;61985;51.070;14.064;2023-04-12T19:22:40;97240.16;;;9.67
73685;BMP280;61985;51.070;14.064;2023-04-12T19:25:07;97229.13;;;9.65
73685;BMP280;61985;51.070;14.064;2023-04-12T19:27:35;97235.84;;;9.60
73685;BMP280;61985;51.070;14.064;2023-04-12T19:30:02;97235.13;;;9.60
73685;BMP280;61985;51.070;14.064;2023-04-12T19:32:28;97236.88;;;9.63
73685;BMP280;61985;51.070;14.064;2023-04-12T19:34:53;97228.84;;;9.54
73685;BMP280;61985;51.070;14.064;2023-04-12T19:37:18;97222.13;;;9.49
73685;BMP280;61985;51.070;14.064;2023-04-12T19:39:44;97208.81;;;9.55
73685;BMP280;61985;51.070;14.064;2023-04-12T19:42:09;97204.03;;;9.59
73685;BMP280;61985;51.070;14.064;2023-04-12T19:44:35;97208.69;;;9.49
73685;BMP280;61985;51.070;14.064;2023-04-12T19:47:01;97196.88;;;9.46
73685;BMP280;61985;51.070;14.064;2023-04-12T19:49:26;97212.38;;;9.51
73685;BMP280;61985;51.070;14.064;2023-04-12T19:51:52;97197.03;;;9.43
73685;BMP280;61985;51.070;14.064;2023-04-12T19:54:17;97197.78;;;9.34
73685;BMP280;61985;51.070;14.064;2023-04-12T19:56:43;97191.06;;;9.29
73685;BMP280;61985;51.070;14.064;2023-04-12T19:59:10;97186.28;;;9.33
73685;BMP280;61985;51.070;14.064;2023-04-12T20:01:35;97172.84;;;9.33
73685;BMP280;61985;51.070;14.064;2023-04-12T20:04:18;97170.47;;;9.36
73685;BMP280;61985;51.070;14.064;2023-04-12T20:06:44;97157.19;;;9.41
73685;BMP280;61985;51.070;14.064;2023-04-12T20:09:10;97157.44;;;9.43
73685;BMP280;61985;51.070;14.064;2023-04-12T20:11:37;97154.50;;;9.41
73685;BMP280;61985;51.070;14.064;2023-04-12T20:14:06;97148.38;;;9.31
73685;BMP280;61985;51.070;14.064;2023-04-12T20:16:37;97139.56;;;9.31
73685;BMP280;61985;51.070;14.064;2023-04-12T20:19:05;97143.56;;;9.36
73685;BMP280;61985;51.070;14.064;2023-04-12T20:21:31;97148.66;;;9.33
73685;BMP280;61985;51.070;14.064;2023-04-12T20:23:58;97152.09;;;9.34
73685;BMP280;61985;51.070;14.064;2023-04-12T20:26:23;97169.56;;;9.29
73685;BMP280;61985;51.070;14.064;2023-04-12T20:28:52;97172.25;;;9.29
73685;BMP280;61985;51.070;14.064;2023-04-12T20:31:17;97179.69;;;9.35
73685;BMP280;61985;51.070;14.064;2023-04-12T20:33:43;97182.25;;;9.38
73685;BMP280;61985;51.070;14.064;2023-04-12T20:36:09;97190.16;;;9.42
73685;BMP280;61985;51.070;14.064;2023-04-12T20:38:34;97196.16;;;9.37
73685;BMP280;61985;51.070;14.064;2023-04-12T20:41:00;97193.47;;;9.37
73685;BMP280;61985;51.070;14.064;2023-04-12T20:43:26;97197.34;;;9.36